sensor_id;sensor_type;location;lat;lon;timestamp;temperature;humidity
52919;DHT22;38793;52.690;6.812;2023-05-10T00:00:57;13.70;99.90
52919;DHT22;38793;52.690;6.812;2023-05-10T00:03:22;13.60;99.90
52919;DHT22;38793;52.690;6.812;2023-05-10T00:05:48;13.60;99.90
52919;DHT22;38793;52.690;6.812;2023-05-10T00:08:13;13.50;99.90
52919;DHT22;38793;52.690;6.812;2023-05-10T00:10:39;13.50;99.90
52919;DHT22;38793;52.690;6.812;2023-05-10T00:13:06;13.50;99.90
52919;DHT22;38793;52.690;6.812;2023-05-10T00:15:31;13.40;99.90
52919;DHT22;38793;52.690;6.812;2023-05-10T00:17:57;13.40;99.90
52919;DHT22;38793;52.690;6.812;2023-05-10T00:20:23;13.40;99.90
52919;DHT22;38793;52.690;6.812;2023-05-10T00:22:49;13.40;99.90
52919;DHT22;38793;52.690;6.812;2023-05-10T00:25:14;13.40;99.90
52919;DHT22;38793;52.690;6.812;2023-05-10T00:27:40;13.30;99.90
52919;DHT22;38793;52.690;6.812;2023-05-10T00:30:06;13.30;99.90
52919;DHT22;38793;52.690;6.812;2023-05-10T00:32:32;13.30;99.90
52919;DHT22;38793;52.690;6.812;2023-05-10T00:34:57;13.30;99.90
52919;DHT22;38793;52.690;6.812;2023-05-10T00:37:23;13.20;99.90
52919;DHT22;38793;52.690;6.812;2023-05-10T00:39:49;13.20;99.90
52919;DHT22;38793;52.690;6.812;2023-05-10T00:42:14;13.20;99.90
52919;DHT22;38793;52.690;6.812;2023-05-10T00:44:40;13.20;99.90
52919;DHT22;38793;52.690;6.812;2023-05-10T00:47:06;13.20;99.90
52919;DHT22;38793;52.690;6.812;2023-05-10T00:49:32;13.20;99.90
52919;DHT22;38793;52.690;6.812;2023-05-10T00:51:57;13.20;99.90
52919;DHT22;38793;52.690;6.812;2023-05-10T00:54:23;13.20;99.90
52919;DHT22;38793;52.690;6.812;2023-05-10T00:56:49;13.20;99.90
52919;DHT22;38793;52.690;6.812;2023-05-10T00:59:16;13.20;99.90
52919;DHT22;38793;52.690;6.812;2023-05-10T01:01:43;13.20;99.90
52919;DHT22;38793;52.690;6.812;2023-05-10T01:04:11;13.20;99.90
52919;DHT22;38793;52.690;6.812;2023-05-10T01:06:38;13.20;99.90
52919;DHT22;38793;52.690;6.812;2023-05-10T01:09:03;13.20;99.90
52919;DHT22;38793;52.690;6.812;2023-05-10T01:11:29;13.20;99.90
52919;DHT22;38793;52.690;6.812;2023-05-10T01:13:56;13.20;99.90
52919;DHT22;38793;52.690;6.812;2023-05-10T01:16:23;13.10;99.90
52919;DHT22;38793;52.690;6.812;2023-05-10T01:18:49;13.20;99.90
52919;DHT22;38793;52.690;6.812;2023-05-10T01:21:23;13.10;99.90
52919;DHT22;38793;52.690;6.812;2023-05-10T01:24:13;13.10;99.90
52919;DHT22;38793;52.690;6.812;2023-05-10T01:27:02;13.10;99.90
52919;DHT22;38793;52.690;6.812;2023-05-10T01:30:02;13.10;99.90
52919;DHT22;38793;52.690;6.812;2023-05-10T01:32:39;13.10;99.90
52919;DHT22;38793;52.690;6.812;2023-05-10T01:35:14;13.10;99.90
52919;DHT22;38793;52.690;6.812;2023-05-10T01:38:07;13.10;99.90
52919;DHT22;38793;52.690;6.812;2023-05-10T01:40:39;13.00;99.90
52919;DHT22;38793;52.690;6.812;2023-05-10T01:43:11;13.10;99.90
52919;DHT22;38793;52.690;6.812;2023-05-10T01:46:07;13.10;99.90
52919;DHT22;38793;52.690;6.812;2023-05-10T01:48:41;13.00;99.90
52919;DHT22;38793;52.690;6.812;2023-05-10T01:51:15;13.00;99.90
52919;DHT22;38793;52.690;6.812;2023-05-10T01:53:42;13.00;99.90
52919;DHT22;38793;52.690;6.812;2023-05-10T01:56:10;13.00;99.90
52919;DHT22;38793;52.690;6.812;2023-05-10T01:58:37;13.00;99.90
52919;DHT22;38793;52.690;6.812;2023-05-10T02:01:05;13.00;99.90
52919;DHT22;38793;52.690;6.812;2023-05-10T02:03:32;13.00;99.90
52919;DHT22;38793;52.690;6.812;2023-05-10T02:06:01;13.00;99.90
52919;DHT22;38793;52.690;6.812;2023-05-10T02:08:28;13.00;99.90
52919;DHT22;38793;52.690;6.812;2023-05-10T02:10:55;13.00;99.90
52919;DHT22;38793;52.690;6.812;2023-05-10T02:13:23;13.00;99.90
52919;DHT22;38793;52.690;6.812;2023-05-10T02:15:50;12.90;99.90
52919;DHT22;38793;52.690;6.812;2023-05-10T02:18:16;12.90;99.90
52919;DHT22;38793;52.690;6.812;2023-05-10T02:20:45;12.90;99.90
52919;DHT22;38793;52.690;6.812;2023-05-10T02:23:11;12.90;99.90
52919;DHT22;38793;52.690;6.812;2023-05-10T02:25:37;12.90;99.90
52919;DHT22;38793;52.690;6.812;2023-05-10T02:28:06;12.90;99.90
52919;DHT22;38793;52.690;6.812;2023-05-10T02:30:33;12.90;99.90
52919;DHT22;38793;52.690;6.812;2023-05-10T02:33:00;12.90;99.90
52919;DHT22;38793;52.690;6.812;2023-05-10T02:35:27;12.90;99.90
52919;DHT22;38793;52.690;6.812;2023-05-10T02:37:54;12.90;99.90
52919;DHT22;38793;52.690;6.812;2023-05-10T02:40:22;12.90;99.90
52919;DHT22;38793;52.690;6.812;2023-05-10T02:42:50;12.90;99.90
52919;DHT22;38793;52.690;6.812;2023-05-10T02:45:20;12.90;99.90
52919;DHT22;38793;52.690;6.812;2023-05-10T02:47:47;12.90;99.90
52919;DHT22;38793;52.690;6.812;2023-05-10T02:50:13;12.90;99.90
52919;DHT22;38793;52.690;6.812;2023-05-10T02:52:42;12.90;99.90
52919;DHT22;38793;52.690;6.812;2023-05-10T02:55:12;12.90;99.90
52919;DHT22;38793;52.690;6.812;2023-05-10T02:57:46;12.90;99.90
52919;DHT22;38793;52.690;6.812;2023-05-10T03:00:14;12.90;99.90
52919;DHT22;38793;52.690;6.812;2023-05-10T03:02:40;12.90;99.90
52919;DHT22;38793;52.690;6.812;2023-05-10T03:05:06;12.90;99.90
52919;DHT22;38793;52.690;6.812;2023-05-10T03:07:32;12.90;99.90
52919;DHT22;38793;52.690;6.812;2023-05-10T03:09:58;12.90;99.90
52919;DHT22;38793;52.690;6.812;2023-05-10T03:12:55;12.90;99.90
52919;DHT22;38793;52.690;6.812;2023-05-10T03:18:23;12.90;99.90
52919;DHT22;38793;52.690;6.812;2023-05-10T03:20:57;12.90;99.90
52919;DHT22;38793;52.690;6.812;2023-05-10T03:23:27;12.90;99.90
52919;DHT22;38793;52.690;6.812;2023-05-10T03:25:55;12.90;99.90
52919;DHT22;38793;52.690;6.812;2023-05-10T03:28:21;12.90;99.90
52919;DHT22;38793;52.690;6.812;2023-05-10T03:30:47;12.90;99.90
52919;DHT22;38793;52.690;6.812;2023-05-10T03:33:14;12.90;99.90
52919;DHT22;38793;52.690;6.812;2023-05-10T03:35:39;12.80;99.90
52919;DHT22;38793;52.690;6.812;2023-05-10T03:38:05;12.80;99.90
52919;DHT22;38793;52.690;6.812;2023-05-10T03:40:31;12.80;99.90
52919;DHT22;38793;52.690;6.812;2023-05-10T03:42:57;12.80;99.90
52919;DHT22;38793;52.690;6.812;2023-05-10T03:45:23;12.80;99.90
52919;DHT22;38793;52.690;6.812;2023-05-10T03:47:49;12.80;99.90
52919;DHT22;38793;52.690;6.812;2023-05-10T03:50:14;12.80;99.90
52919;DHT22;38793;52.690;6.812;2023-05-10T03:52:40;12.80;99.90
52919;DHT22;38793;52.690;6.812;2023-05-10T03:55:06;12.80;99.90
52919;DHT22;38793;52.690;6.812;2023-05-10T03:57:33;12.80;99.90
52919;DHT22;38793;52.690;6.812;2023-05-10T03:59:59;12.80;99.90
52919;DHT22;38793;52.690;6.812;2023-05-10T04:02:25;12.80;99.90
52919;DHT22;38793;52.690;6.812;2023-05-10T04:04:50;12.80;99.90
52919;DHT22;38793;52.690;6.812;2023-05-10T04:07:16;12.80;99.90
52919;DHT22;38793;52.690;6.812;2023-05-10T04:09:42;12.70;99.90
52919;DHT22;38793;52.690;6.812;2023-05-10T04:12:07;12.70;99.90
52919;DHT22;38793;52.690;6.812;2023-05-10T04:14:33;12.70;99.90
52919;DHT22;38793;52.690;6.812;2023-05-10T04:16:58;12.70;99.90
52919;DHT22;38793;52.690;6.812;2023-05-10T04:19:24;12.70;99.90
52919;DHT22;38793;52.690;6.812;2023-05-10T04:21:54;12.60;99.90
52919;DHT22;38793;52.690;6.812;2023-05-10T04:24:19;12.60;99.90
52919;DHT22;38793;52.690;6.812;2023-05-10T04:26:45;12.60;99.90
52919;DHT22;38793;52.690;6.812;2023-05-10T04:29:11;12.60;99.90
52919;DHT22;38793;52.690;6.812;2023-05-10T04:31:36;12.70;99.90
52919;DHT22;38793;52.690;6.812;2023-05-10T04:34:02;12.70;99.90
52919;DHT22;38793;52.690;6.812;2023-05-10T04:36:27;12.70;99.90
52919;DHT22;38793;52.690;6.812;2023-05-10T04:38:54;12.70;99.90
52919;DHT22;38793;52.690;6.812;2023-05-10T04:41:19;12.70;99.90
52919;DHT22;38793;52.690;6.812;2023-05-10T04:43:46;12.70;99.90
52919;DHT22;38793;52.690;6.812;2023-05-10T04:46:12;12.70;99.90
52919;DHT22;38793;52.690;6.812;2023-05-10T04:48:37;12.70;99.90
52919;DHT22;38793;52.690;6.812;2023-05-10T04:51:03;12.70;99.90
52919;DHT22;38793;52.690;6.812;2023-05-10T04:53:29;12.70;99.90
52919;DHT22;38793;52.690;6.812;2023-05-10T04:55:55;12.70;99.90
52919;DHT22;38793;52.690;6.812;2023-05-10T04:58:20;12.70;99.90
52919;DHT22;38793;52.690;6.812;2023-05-10T05:00:46;12.70;99.90
52919;DHT22;38793;52.690;6.812;2023-05-10T05:03:12;12.70;99.90
52919;DHT22;38793;52.690;6.812;2023-05-10T05:05:37;12.70;99.90
52919;DHT22;38793;52.690;6.812;2023-05-10T05:08:03;12.70;99.90
52919;DHT22;38793;52.690;6.812;2023-05-10T05:10:29;12.70;99.90
52919;DHT22;38793;52.690;6.812;2023-05-10T05:12:55;12.70;99.90
52919;DHT22;38793;52.690;6.812;2023-05-10T05:15:20;12.70;99.90
52919;DHT22;38793;52.690;6.812;2023-05-10T05:17:46;12.70;99.90
52919;DHT22;38793;52.690;6.812;2023-05-10T05:20:12;12.70;99.90
52919;DHT22;38793;52.690;6.812;2023-05-10T05:22:38;12.70;99.90
52919;DHT22;38793;52.690;6.812;2023-05-10T05:25:04;12.70;99.90
52919;DHT22;38793;52.690;6.812;2023-05-10T05:27:31;12.80;99.90
52919;DHT22;38793;52.690;6.812;2023-05-10T05:29:57;12.80;99.90
52919;DHT22;38793;52.690;6.812;2023-05-10T05:32:23;12.80;99.90
52919;DHT22;38793;52.690;6.812;2023-05-10T05:34:49;12.80;99.90
52919;DHT22;38793;52.690;6.812;2023-05-10T05:37:16;12.90;99.90
52919;DHT22;38793;52.690;6.812;2023-05-10T05:39:42;12.90;99.90
52919;DHT22;38793;52.690;6.812;2023-05-10T05:42:08;12.90;99.90
52919;DHT22;38793;52.690;6.812;2023-05-10T05:44:34;12.90;99.90
52919;DHT22;38793;52.690;6.812;2023-05-10T05:47:00;12.90;99.90
52919;DHT22;38793;52.690;6.812;2023-05-10T05:49:25;12.90;99.90
52919;DHT22;38793;52.690;6.812;2023-05-10T05:51:51;13.00;99.90
52919;DHT22;38793;52.690;6.812;2023-05-10T05:54:16;13.00;99.90
52919;DHT22;38793;52.690;6.812;2023-05-10T05:56:42;13.00;99.90
52919;DHT22;38793;52.690;6.812;2023-05-10T05:59:09;13.00;99.90
52919;DHT22;38793;52.690;6.812;2023-05-10T06:01:35;13.00;99.90
52919;DHT22;38793;52.690;6.812;2023-05-10T06:04:01;13.00;99.90
52919;DHT22;38793;52.690;6.812;2023-05-10T06:06:27;13.10;99.90
52919;DHT22;38793;52.690;6.812;2023-05-10T06:08:53;13.10;99.90
52919;DHT22;38793;52.690;6.812;2023-05-10T06:11:18;13.10;99.90
52919;DHT22;38793;52.690;6.812;2023-05-10T06:13:44;13.00;99.90
52919;DHT22;38793;52.690;6.812;2023-05-10T06:16:09;13.10;99.90
52919;DHT22;38793;52.690;6.812;2023-05-10T06:18:35;13.10;99.90
52919;DHT22;38793;52.690;6.812;2023-05-10T06:21:01;13.10;99.90
52919;DHT22;38793;52.690;6.812;2023-05-10T06:23:27;13.10;99.90
52919;DHT22;38793;52.690;6.812;2023-05-10T06:25:52;13.10;99.90
52919;DHT22;38793;52.690;6.812;2023-05-10T06:28:18;13.10;99.90
52919;DHT22;38793;52.690;6.812;2023-05-10T06:30:43;13.20;99.90
52919;DHT22;38793;52.690;6.812;2023-05-10T06:33:09;13.20;99.90
52919;DHT22;38793;52.690;6.812;2023-05-10T06:35:35;13.30;99.90
52919;DHT22;38793;52.690;6.812;2023-05-10T06:38:02;13.30;99.90
52919;DHT22;38793;52.690;6.812;2023-05-10T06:40:27;13.30;99.90
52919;DHT22;38793;52.690;6.812;2023-05-10T06:42:53;13.50;99.90
52919;DHT22;38793;52.690;6.812;2023-05-10T06:45:19;13.50;99.90
52919;DHT22;38793;52.690;6.812;2023-05-10T06:47:44;13.50;99.90
52919;DHT22;38793;52.690;6.812;2023-05-10T06:50:11;13.50;99.90
52919;DHT22;38793;52.690;6.812;2023-05-10T06:52:37;13.50;99.90
52919;DHT22;38793;52.690;6.812;2023-05-10T06:55:04;13.60;99.90
52919;DHT22;38793;52.690;6.812;2023-05-10T06:57:30;13.70;99.90
52919;DHT22;38793;52.690;6.812;2023-05-10T06:59:55;13.80;99.90
52919;DHT22;38793;52.690;6.812;2023-05-10T07:02:22;13.80;99.90
52919;DHT22;38793;52.690;6.812;2023-05-10T07:04:48;13.90;99.90
52919;DHT22;38793;52.690;6.812;2023-05-10T07:07:14;13.90;99.90
52919;DHT22;38793;52.690;6.812;2023-05-10T07:09:39;14.00;99.90
52919;DHT22;38793;52.690;6.812;2023-05-10T07:12:05;14.10;99.90
52919;DHT22;38793;52.690;6.812;2023-05-10T07:14:31;14.10;99.90
52919;DHT22;38793;52.690;6.812;2023-05-10T07:16:56;14.10;99.90
52919;DHT22;38793;52.690;6.812;2023-05-10T07:19:22;14.10;99.90
52919;DHT22;38793;52.690;6.812;2023-05-10T07:21:48;14.20;99.90
52919;DHT22;38793;52.690;6.812;2023-05-10T07:24:13;14.10;99.90
52919;DHT22;38793;52.690;6.812;2023-05-10T07:26:39;14.20;99.90
52919;DHT22;38793;52.690;6.812;2023-05-10T07:29:05;14.20;99.90
52919;DHT22;38793;52.690;6.812;2023-05-10T07:31:30;14.10;99.90
52919;DHT22;38793;52.690;6.812;2023-05-10T07:33:56;14.10;99.90
52919;DHT22;38793;52.690;6.812;2023-05-10T07:36:22;14.10;99.90
52919;DHT22;38793;52.690;6.812;2023-05-10T07:38:47;14.10;99.90
52919;DHT22;38793;52.690;6.812;2023-05-10T07:41:14;14.10;99.90
52919;DHT22;38793;52.690;6.812;2023-05-10T07:43:40;14.00;99.90
52919;DHT22;38793;52.690;6.812;2023-05-10T07:46:05;14.00;99.90
52919;DHT22;38793;52.690;6.812;2023-05-10T07:48:31;14.00;99.90
52919;DHT22;38793;52.690;6.812;2023-05-10T07:50:57;14.00;99.90
52919;DHT22;38793;52.690;6.812;2023-05-10T07:53:23;14.10;99.90
52919;DHT22;38793;52.690;6.812;2023-05-10T07:55:54;14.10;99.90
52919;DHT22;38793;52.690;6.812;2023-05-10T07:58:23;14.10;99.90
52919;DHT22;38793;52.690;6.812;2023-05-10T08:00:49;14.20;99.90
52919;DHT22;38793;52.690;6.812;2023-05-10T08:03:15;14.20;99.90
52919;DHT22;38793;52.690;6.812;2023-05-10T08:05:40;14.30;99.90
52919;DHT22;38793;52.690;6.812;2023-05-10T08:08:06;14.30;99.90
52919;DHT22;38793;52.690;6.812;2023-05-10T08:10:32;14.30;99.90
52919;DHT22;38793;52.690;6.812;2023-05-10T08:12:58;14.30;99.90
52919;DHT22;38793;52.690;6.812;2023-05-10T08:15:24;14.40;99.90
52919;DHT22;38793;52.690;6.812;2023-05-10T08:17:51;14.30;99.90
52919;DHT22;38793;52.690;6.812;2023-05-10T08:20:17;14.40;99.90
52919;DHT22;38793;52.690;6.812;2023-05-10T08:22:45;14.40;99.90
52919;DHT22;38793;52.690;6.812;2023-05-10T08:25:10;14.40;99.90
52919;DHT22;38793;52.690;6.812;2023-05-10T08:27:36;14.40;99.90
52919;DHT22;38793;52.690;6.812;2023-05-10T08:30:02;14.50;99.90
52919;DHT22;38793;52.690;6.812;2023-05-10T08:32:28;14.50;99.90
52919;DHT22;38793;52.690;6.812;2023-05-10T08:34:53;14.60;99.90
52919;DHT22;38793;52.690;6.812;2023-05-10T08:37:19;14.70;99.90
52919;DHT22;38793;52.690;6.812;2023-05-10T08:39:45;14.70;99.90
52919;DHT22;38793;52.690;6.812;2023-05-10T08:42:19;14.70;99.90
52919;DHT22;38793;52.690;6.812;2023-05-10T08:44:48;14.80;99.90
52919;DHT22;38793;52.690;6.812;2023-05-10T08:47:16;14.80;99.90
52919;DHT22;38793;52.690;6.812;2023-05-10T08:49:44;14.90;99.90
52919;DHT22;38793;52.690;6.812;2023-05-10T08:52:13;14.90;99.90
52919;DHT22;38793;52.690;6.812;2023-05-10T08:54:41;14.90;99.90
52919;DHT22;38793;52.690;6.812;2023-05-10T08:57:07;14.90;99.90
52919;DHT22;38793;52.690;6.812;2023-05-10T08:59:32;14.90;99.90
52919;DHT22;38793;52.690;6.812;2023-05-10T09:01:59;15.00;99.90
52919;DHT22;38793;52.690;6.812;2023-05-10T09:04:25;15.00;99.90
52919;DHT22;38793;52.690;6.812;2023-05-10T09:06:51;15.00;99.90
52919;DHT22;38793;52.690;6.812;2023-05-10T09:09:17;15.10;99.90
52919;DHT22;38793;52.690;6.812;2023-05-10T09:11:44;15.10;99.90
52919;DHT22;38793;52.690;6.812;2023-05-10T09:14:11;15.20;99.90
52919;DHT22;38793;52.690;6.812;2023-05-10T09:16:39;15.20;99.90
52919;DHT22;38793;52.690;6.812;2023-05-10T09:19:05;15.20;99.90
52919;DHT22;38793;52.690;6.812;2023-05-10T09:21:32;15.20;99.90
52919;DHT22;38793;52.690;6.812;2023-05-10T09:24:03;15.20;99.90
52919;DHT22;38793;52.690;6.812;2023-05-10T09:26:29;15.20;99.90
52919;DHT22;38793;52.690;6.812;2023-05-10T09:28:56;15.20;99.90
52919;DHT22;38793;52.690;6.812;2023-05-10T09:31:23;15.20;99.90
52919;DHT22;38793;52.690;6.812;2023-05-10T09:33:50;15.20;99.90
52919;DHT22;38793;52.690;6.812;2023-05-10T09:36:17;15.20;99.90
52919;DHT22;38793;52.690;6.812;2023-05-10T09:38:50;15.20;99.90
52919;DHT22;38793;52.690;6.812;2023-05-10T09:41:21;15.30;99.90
52919;DHT22;38793;52.690;6.812;2023-05-10T09:43:47;15.30;99.90
52919;DHT22;38793;52.690;6.812;2023-05-10T09:46:14;15.40;99.90
52919;DHT22;38793;52.690;6.812;2023-05-10T09:48:48;15.50;99.90
52919;DHT22;38793;52.690;6.812;2023-05-10T09:51:21;15.50;99.90
52919;DHT22;38793;52.690;6.812;2023-05-10T09:53:47;15.60;99.90
52919;DHT22;38793;52.690;6.812;2023-05-10T09:56:13;15.50;99.90
52919;DHT22;38793;52.690;6.812;2023-05-10T09:58:42;15.50;99.90
52919;DHT22;38793;52.690;6.812;2023-05-10T10:01:11;15.50;99.90
52919;DHT22;38793;52.690;6.812;2023-05-10T10:03:42;15.50;99.90
52919;DHT22;38793;52.690;6.812;2023-05-10T10:06:08;15.50;99.90
52919;DHT22;38793;52.690;6.812;2023-05-10T10:08:34;15.40;99.90
52919;DHT22;38793;52.690;6.812;2023-05-10T10:11:00;15.40;99.90
52919;DHT22;38793;52.690;6.812;2023-05-10T10:13:26;15.40;99.90
52919;DHT22;38793;52.690;6.812;2023-05-10T10:15:52;15.40;99.90
52919;DHT22;38793;52.690;6.812;2023-05-10T10:18:19;15.40;99.90
52919;DHT22;38793;52.690;6.812;2023-05-10T10:20:49;15.40;99.90
52919;DHT22;38793;52.690;6.812;2023-05-10T10:23:15;15.30;99.90
52919;DHT22;38793;52.690;6.812;2023-05-10T10:25:40;15.40;99.90
52919;DHT22;38793;52.690;6.812;2023-05-10T10:28:32;15.30;99.90
52919;DHT22;38793;52.690;6.812;2023-05-10T10:31:15;15.40;99.90
52919;DHT22;38793;52.690;6.812;2023-05-10T10:34:05;15.40;99.90
52919;DHT22;38793;52.690;6.812;2023-05-10T10:36:54;15.40;99.90
52919;DHT22;38793;52.690;6.812;2023-05-10T10:39:20;15.40;99.90
52919;DHT22;38793;52.690;6.812;2023-05-10T10:41:54;15.50;99.90
52919;DHT22;38793;52.690;6.812;2023-05-10T10:49:49;15.70;99.90
52919;DHT22;38793;52.690;6.812;2023-05-10T10:52:23;15.80;99.90
52919;DHT22;38793;52.690;6.812;2023-05-10T10:55:09;15.80;99.90
52919;DHT22;38793;52.690;6.812;2023-05-10T11:00:29;15.80;99.90
52919;DHT22;38793;52.690;6.812;2023-05-10T11:03:08;15.80;99.90
52919;DHT22;38793;52.690;6.812;2023-05-10T11:05:38;15.80;99.90
52919;DHT22;38793;52.690;6.812;2023-05-10T11:08:13;15.80;99.90
52919;DHT22;38793;52.690;6.812;2023-05-10T11:10:48;15.80;99.90
52919;DHT22;38793;52.690;6.812;2023-05-10T11:13:14;15.80;99.90
52919;DHT22;38793;52.690;6.812;2023-05-10T11:15:48;15.80;99.90
52919;DHT22;38793;52.690;6.812;2023-05-10T11:18:28;15.70;99.90
52919;DHT22;38793;52.690;6.812;2023-05-10T11:20:59;15.70;99.90
52919;DHT22;38793;52.690;6.812;2023-05-10T11:23:52;15.70;99.90
52919;DHT22;38793;52.690;6.812;2023-05-10T11:26:22;15.60;99.90
52919;DHT22;38793;52.690;6.812;2023-05-10T11:28:50;15.60;99.90
52919;DHT22;38793;52.690;6.812;2023-05-10T11:31:18;15.60;99.90
52919;DHT22;38793;52.690;6.812;2023-05-10T11:33:48;15.60;99.90
52919;DHT22;38793;52.690;6.812;2023-05-10T11:36:15;15.60;99.90
52919;DHT22;38793;52.690;6.812;2023-05-10T11:38:41;15.60;99.90
52919;DHT22;38793;52.690;6.812;2023-05-10T11:41:09;15.60;99.90
52919;DHT22;38793;52.690;6.812;2023-05-10T11:43:35;15.60;99.90
52919;DHT22;38793;52.690;6.812;2023-05-10T11:46:04;15.70;99.90
52919;DHT22;38793;52.690;6.812;2023-05-10T11:48:31;15.60;99.90
52919;DHT22;38793;52.690;6.812;2023-05-10T11:50:57;15.60;99.90
52919;DHT22;38793;52.690;6.812;2023-05-10T11:53:25;15.60;99.90
52919;DHT22;38793;52.690;6.812;2023-05-10T11:55:51;15.60;99.90
52919;DHT22;38793;52.690;6.812;2023-05-10T11:58:18;15.60;99.90
52919;DHT22;38793;52.690;6.812;2023-05-10T12:00:44;15.70;99.90
52919;DHT22;38793;52.690;6.812;2023-05-10T12:03:11;15.70;99.90
52919;DHT22;38793;52.690;6.812;2023-05-10T12:05:37;15.70;99.90
52919;DHT22;38793;52.690;6.812;2023-05-10T12:08:12;15.70;99.90
52919;DHT22;38793;52.690;6.812;2023-05-10T12:10:38;15.70;99.90
52919;DHT22;38793;52.690;6.812;2023-05-10T12:13:03;15.70;99.90
52919;DHT22;38793;52.690;6.812;2023-05-10T12:15:29;15.80;99.90
52919;DHT22;38793;52.690;6.812;2023-05-10T12:17:56;15.80;99.90
52919;DHT22;38793;52.690;6.812;2023-05-10T12:20:24;15.90;99.90
52919;DHT22;38793;52.690;6.812;2023-05-10T12:22:50;15.90;99.90
52919;DHT22;38793;52.690;6.812;2023-05-10T12:25:21;16.00;99.90
52919;DHT22;38793;52.690;6.812;2023-05-10T12:27:52;15.90;99.90
52919;DHT22;38793;52.690;6.812;2023-05-10T12:30:25;15.90;99.90
52919;DHT22;38793;52.690;6.812;2023-05-10T12:32:52;15.90;99.90
52919;DHT22;38793;52.690;6.812;2023-05-10T12:35:18;15.90;99.90
52919;DHT22;38793;52.690;6.812;2023-05-10T12:37:50;15.80;99.90
52919;DHT22;38793;52.690;6.812;2023-05-10T12:40:16;15.80;99.90
52919;DHT22;38793;52.690;6.812;2023-05-10T12:42:42;15.80;99.90
52919;DHT22;38793;52.690;6.812;2023-05-10T12:45:10;15.70;99.90
52919;DHT22;38793;52.690;6.812;2023-05-10T12:47:36;15.70;99.90
52919;DHT22;38793;52.690;6.812;2023-05-10T12:50:02;15.70;99.90
52919;DHT22;38793;52.690;6.812;2023-05-10T12:52:28;15.60;99.90
52919;DHT22;38793;52.690;6.812;2023-05-10T12:54:54;15.60;99.90
52919;DHT22;38793;52.690;6.812;2023-05-10T12:57:20;15.50;99.90
52919;DHT22;38793;52.690;6.812;2023-05-10T12:59:46;15.50;99.90
52919;DHT22;38793;52.690;6.812;2023-05-10T13:02:12;15.50;99.90
52919;DHT22;38793;52.690;6.812;2023-05-10T13:04:38;15.50;99.90
52919;DHT22;38793;52.690;6.812;2023-05-10T13:07:08;15.50;99.90
52919;DHT22;38793;52.690;6.812;2023-05-10T13:09:34;15.50;99.90
52919;DHT22;38793;52.690;6.812;2023-05-10T13:12:00;15.50;99.90
52919;DHT22;38793;52.690;6.812;2023-05-10T13:14:26;15.60;99.90
52919;DHT22;38793;52.690;6.812;2023-05-10T13:16:51;15.60;99.90
52919;DHT22;38793;52.690;6.812;2023-05-10T13:19:17;15.50;99.90
52919;DHT22;38793;52.690;6.812;2023-05-10T13:21:43;15.50;99.90
52919;DHT22;38793;52.690;6.812;2023-05-10T13:24:12;15.40;99.90
52919;DHT22;38793;52.690;6.812;2023-05-10T13:26:40;15.40;99.90
52919;DHT22;38793;52.690;6.812;2023-05-10T13:29:06;15.40;99.90
52919;DHT22;38793;52.690;6.812;2023-05-10T13:31:32;15.40;99.90
52919;DHT22;38793;52.690;6.812;2023-05-10T13:33:57;15.30;99.90
52919;DHT22;38793;52.690;6.812;2023-05-10T13:36:23;15.30;99.90
52919;DHT22;38793;52.690;6.812;2023-05-10T13:38:48;15.40;99.90
52919;DHT22;38793;52.690;6.812;2023-05-10T13:41:14;15.30;99.90
52919;DHT22;38793;52.690;6.812;2023-05-10T13:43:40;15.40;99.90
52919;DHT22;38793;52.690;6.812;2023-05-10T13:46:05;15.50;99.90
52919;DHT22;38793;52.690;6.812;2023-05-10T13:48:31;15.50;99.90
52919;DHT22;38793;52.690;6.812;2023-05-10T13:50:57;15.50;99.90
52919;DHT22;38793;52.690;6.812;2023-05-10T13:53:22;15.60;99.90
52919;DHT22;38793;52.690;6.812;2023-05-10T13:55:48;15.60;99.90
52919;DHT22;38793;52.690;6.812;2023-05-10T13:58:14;15.70;99.90
52919;DHT22;38793;52.690;6.812;2023-05-10T14:00:39;15.70;99.90
52919;DHT22;38793;52.690;6.812;2023-05-10T14:03:05;15.80;99.90
52919;DHT22;38793;52.690;6.812;2023-05-10T14:05:32;15.90;99.90
52919;DHT22;38793;52.690;6.812;2023-05-10T14:07:57;15.90;99.90
52919;DHT22;38793;52.690;6.812;2023-05-10T14:10:23;15.90;99.90
52919;DHT22;38793;52.690;6.812;2023-05-10T14:12:49;15.90;99.90
52919;DHT22;38793;52.690;6.812;2023-05-10T14:15:15;15.90;99.90
52919;DHT22;38793;52.690;6.812;2023-05-10T14:17:41;15.90;99.90
52919;DHT22;38793;52.690;6.812;2023-05-10T14:20:07;15.90;99.90
52919;DHT22;38793;52.690;6.812;2023-05-10T14:22:34;16.00;99.90
52919;DHT22;38793;52.690;6.812;2023-05-10T14:25:00;16.00;99.90
52919;DHT22;38793;52.690;6.812;2023-05-10T14:27:25;16.10;99.90
52919;DHT22;38793;52.690;6.812;2023-05-10T14:29:51;16.10;99.90
52919;DHT22;38793;52.690;6.812;2023-05-10T14:32:17;16.10;99.90
52919;DHT22;38793;52.690;6.812;2023-05-10T14:34:43;16.20;99.90
52919;DHT22;38793;52.690;6.812;2023-05-10T14:37:10;16.10;99.90
52919;DHT22;38793;52.690;6.812;2023-05-10T14:39:36;16.10;99.90
52919;DHT22;38793;52.690;6.812;2023-05-10T14:42:03;16.10;99.90
52919;DHT22;38793;52.690;6.812;2023-05-10T14:44:29;16.00;99.90
52919;DHT22;38793;52.690;6.812;2023-05-10T14:46:54;16.00;99.90
52919;DHT22;38793;52.690;6.812;2023-05-10T14:49:21;16.00;99.90
52919;DHT22;38793;52.690;6.812;2023-05-10T14:51:48;15.90;99.90
52919;DHT22;38793;52.690;6.812;2023-05-10T14:54:14;15.90;99.90
52919;DHT22;38793;52.690;6.812;2023-05-10T14:56:39;15.90;99.90
52919;DHT22;38793;52.690;6.812;2023-05-10T14:59:07;15.80;99.90
52919;DHT22;38793;52.690;6.812;2023-05-10T15:01:32;15.80;99.90
52919;DHT22;38793;52.690;6.812;2023-05-10T15:04:00;15.80;99.90
52919;DHT22;38793;52.690;6.812;2023-05-10T15:06:32;15.80;99.90
52919;DHT22;38793;52.690;6.812;2023-05-10T15:08:59;15.70;99.90
52919;DHT22;38793;52.690;6.812;2023-05-10T15:11:25;15.70;99.90
52919;DHT22;38793;52.690;6.812;2023-05-10T15:13:51;15.70;99.90
52919;DHT22;38793;52.690;6.812;2023-05-10T15:16:16;15.60;99.90
52919;DHT22;38793;52.690;6.812;2023-05-10T15:18:42;15.60;99.90
52919;DHT22;38793;52.690;6.812;2023-05-10T15:21:07;15.60;99.90
52919;DHT22;38793;52.690;6.812;2023-05-10T15:23:33;15.60;99.90
52919;DHT22;38793;52.690;6.812;2023-05-10T15:26:00;15.60;99.90
52919;DHT22;38793;52.690;6.812;2023-05-10T15:28:26;15.50;99.90
52919;DHT22;38793;52.690;6.812;2023-05-10T15:30:51;15.60;99.90
52919;DHT22;38793;52.690;6.812;2023-05-10T15:33:17;15.50;99.90
52919;DHT22;38793;52.690;6.812;2023-05-10T15:35:43;15.50;99.90
52919;DHT22;38793;52.690;6.812;2023-05-10T15:38:09;15.50;99.90
52919;DHT22;38793;52.690;6.812;2023-05-10T15:40:35;15.50;99.90
52919;DHT22;38793;52.690;6.812;2023-05-10T15:43:00;15.50;99.90